sensor_id;sensor_type;location;lat;lon;timestamp;P1;durP1;ratioP1;P2;durP2;ratioP2
1471;SDS011;963;42.644;23.336;2023-08-17T00:00:17;8.07;;;5.50;;
1471;SDS011;963;42.644;23.336;2023-08-17T00:02:43;8.60;;;6.50;;
1471;SDS011;963;42.644;23.336;2023-08-17T00:05:09;8.73;;;6.23;;
1471;SDS011;963;42.644;23.336;2023-08-17T00:07:34;9.20;;;6.80;;
1471;SDS011;963;42.644;23.336;2023-08-17T00:10:00;7.77;;;6.37;;
1471;SDS011;963;42.644;23.336;2023-08-17T00:12:26;9.03;;;6.17;;
1471;SDS011;963;42.644;23.336;2023-08-17T00:14:52;8.33;;;5.97;;
1471;SDS011;963;42.644;23.336;2023-08-17T00:17:18;8.60;;;6.23;;
1471;SDS011;963;42.644;23.336;2023-08-17T00:19:44;11.20;;;6.13;;
1471;SDS011;963;42.644;23.336;2023-08-17T00:22:09;8.30;;;6.13;;
1471;SDS011;963;42.644;23.336;2023-08-17T00:24:35;9.03;;;6.00;;
1471;SDS011;963;42.644;23.336;2023-08-17T00:27:00;8.50;;;5.13;;
1471;SDS011;963;42.644;23.336;2023-08-17T00:29:26;11.90;;;5.20;;
1471;SDS011;963;42.644;23.336;2023-08-17T00:31:51;7.70;;;5.70;;
1471;SDS011;963;42.644;23.336;2023-08-17T00:34:17;5.70;;;5.10;;
1471;SDS011;963;42.644;23.336;2023-08-17T00:36:43;10.27;;;5.73;;
1471;SDS011;963;42.644;23.336;2023-08-17T00:39:08;7.07;;;5.13;;
1471;SDS011;963;42.644;23.336;2023-08-17T00:41:34;8.37;;;5.13;;
1471;SDS011;963;42.644;23.336;2023-08-17T00:43:59;6.27;;;5.00;;
1471;SDS011;963;42.644;23.336;2023-08-17T00:46:25;6.20;;;4.80;;
1471;SDS011;963;42.644;23.336;2023-08-17T00:48:52;7.03;;;5.40;;
1471;SDS011;963;42.644;23.336;2023-08-17T00:51:20;6.80;;;4.67;;
1471;SDS011;963;42.644;23.336;2023-08-17T00:53:48;7.40;;;4.83;;
1471;SDS011;963;42.644;23.336;2023-08-17T00:56:15;6.70;;;4.67;;
1471;SDS011;963;42.644;23.336;2023-08-17T00:58:41;7.73;;;4.60;;
1471;SDS011;963;42.644;23.336;2023-08-17T01:01:08;6.80;;;4.50;;
1471;SDS011;963;42.644;23.336;2023-08-17T01:03:33;7.53;;;4.33;;
1471;SDS011;963;42.644;23.336;2023-08-17T01:05:59;4.87;;;4.30;;
1471;SDS011;963;42.644;23.336;2023-08-17T01:08:27;5.10;;;4.23;;
1471;SDS011;963;42.644;23.336;2023-08-17T01:13:35;10.70;;;4.43;;
1471;SDS011;963;42.644;23.336;2023-08-17T01:16:10;5.67;;;4.10;;
1471;SDS011;963;42.644;23.336;2023-08-17T01:18:39;7.80;;;4.40;;
1471;SDS011;963;42.644;23.336;2023-08-17T01:21:06;8.17;;;4.33;;
1471;SDS011;963;42.644;23.336;2023-08-17T01:23:35;5.97;;;4.50;;
1471;SDS011;963;42.644;23.336;2023-08-17T01:26:00;7.23;;;4.23;;
1471;SDS011;963;42.644;23.336;2023-08-17T01:28:26;4.30;;;3.90;;
1471;SDS011;963;42.644;23.336;2023-08-17T01:31:01;5.87;;;4.20;;
1471;SDS011;963;42.644;23.336;2023-08-17T01:33:29;5.77;;;4.10;;
1471;SDS011;963;42.644;23.336;2023-08-17T01:38:47;4.40;;;3.60;;
1471;SDS011;963;42.644;23.336;2023-08-17T01:41:16;5.70;;;3.87;;
1471;SDS011;963;42.644;23.336;2023-08-17T01:43:43;5.83;;;3.90;;
1471;SDS011;963;42.644;23.336;2023-08-17T01:46:14;6.93;;;4.00;;
1471;SDS011;963;42.644;23.336;2023-08-17T01:48:41;4.83;;;4.33;;
1471;SDS011;963;42.644;23.336;2023-08-17T01:51:07;5.03;;;3.60;;
1471;SDS011;963;42.644;23.336;2023-08-17T01:53:32;5.67;;;3.70;;
1471;SDS011;963;42.644;23.336;2023-08-17T01:55:58;10.00;;;4.30;;
1471;SDS011;963;42.644;23.336;2023-08-17T01:58:23;6.60;;;3.60;;
1471;SDS011;963;42.644;23.336;2023-08-17T02:00:49;11.17;;;3.97;;
1471;SDS011;963;42.644;23.336;2023-08-17T02:03:14;4.17;;;3.40;;
1471;SDS011;963;42.644;23.336;2023-08-17T02:05:43;5.80;;;4.03;;
1471;SDS011;963;42.644;23.336;2023-08-17T02:08:12;5.40;;;3.40;;
1471;SDS011;963;42.644;23.336;2023-08-17T02:10:38;5.57;;;4.00;;
1471;SDS011;963;42.644;23.336;2023-08-17T02:13:03;5.60;;;3.87;;
1471;SDS011;963;42.644;23.336;2023-08-17T02:15:29;9.90;;;3.60;;
1471;SDS011;963;42.644;23.336;2023-08-17T02:17:56;5.90;;;3.57;;
1471;SDS011;963;42.644;23.336;2023-08-17T02:20:22;6.77;;;4.57;;
1471;SDS011;963;42.644;23.336;2023-08-17T02:22:47;5.20;;;3.70;;
1471;SDS011;963;42.644;23.336;2023-08-17T02:25:12;6.73;;;3.80;;
1471;SDS011;963;42.644;23.336;2023-08-17T02:27:38;8.30;;;4.13;;
1471;SDS011;963;42.644;23.336;2023-08-17T02:30:03;6.03;;;3.80;;
1471;SDS011;963;42.644;23.336;2023-08-17T02:32:29;7.90;;;3.73;;
1471;SDS011;963;42.644;23.336;2023-08-17T02:34:54;7.67;;;3.77;;
1471;SDS011;963;42.644;23.336;2023-08-17T02:37:20;4.67;;;3.60;;
1471;SDS011;963;42.644;23.336;2023-08-17T02:39:45;5.43;;;3.57;;
1471;SDS011;963;42.644;23.336;2023-08-17T02:42:11;5.13;;;3.70;;
1471;SDS011;963;42.644;23.336;2023-08-17T02:44:36;4.47;;;3.53;;
1471;SDS011;963;42.644;23.336;2023-08-17T02:47:01;7.80;;;3.60;;
1471;SDS011;963;42.644;23.336;2023-08-17T02:49:27;5.27;;;3.97;;
1471;SDS011;963;42.644;23.336;2023-08-17T02:51:52;5.03;;;3.57;;
1471;SDS011;963;42.644;23.336;2023-08-17T02:54:17;4.00;;;3.60;;
1471;SDS011;963;42.644;23.336;2023-08-17T02:56:43;7.70;;;4.07;;
1471;SDS011;963;42.644;23.336;2023-08-17T02:59:08;4.70;;;3.57;;
1471;SDS011;963;42.644;23.336;2023-08-17T03:01:34;9.40;;;3.93;;
1471;SDS011;963;42.644;23.336;2023-08-17T03:04:00;4.70;;;3.80;;
1471;SDS011;963;42.644;23.336;2023-08-17T03:06:25;4.33;;;3.67;;
1471;SDS011;963;42.644;23.336;2023-08-17T03:08:51;6.30;;;3.57;;
1471;SDS011;963;42.644;23.336;2023-08-17T03:11:17;4.50;;;3.70;;
1471;SDS011;963;42.644;23.336;2023-08-17T03:13:43;7.13;;;3.80;;
1471;SDS011;963;42.644;23.336;2023-08-17T03:16:08;3.90;;;3.50;;
1471;SDS011;963;42.644;23.336;2023-08-17T03:18:33;9.27;;;4.03;;
1471;SDS011;963;42.644;23.336;2023-08-17T03:20:59;5.47;;;3.50;;
1471;SDS011;963;42.644;23.336;2023-08-17T03:23:24;4.83;;;3.47;;
1471;SDS011;963;42.644;23.336;2023-08-17T03:25:53;5.93;;;3.80;;
1471;SDS011;963;42.644;23.336;2023-08-17T03:28:19;4.10;;;3.43;;
1471;SDS011;963;42.644;23.336;2023-08-17T03:30:44;5.13;;;3.20;;
1471;SDS011;963;42.644;23.336;2023-08-17T03:33:10;5.50;;;3.30;;
1471;SDS011;963;42.644;23.336;2023-08-17T03:35:35;5.57;;;3.17;;
1471;SDS011;963;42.644;23.336;2023-08-17T03:38:00;5.33;;;2.87;;
1471;SDS011;963;42.644;23.336;2023-08-17T03:40:26;4.17;;;3.47;;
1471;SDS011;963;42.644;23.336;2023-08-17T03:42:51;4.73;;;3.60;;
1471;SDS011;963;42.644;23.336;2023-08-17T03:45:17;7.33;;;3.73;;
1471;SDS011;963;42.644;23.336;2023-08-17T03:47:43;5.43;;;3.70;;
1471;SDS011;963;42.644;23.336;2023-08-17T03:50:09;8.37;;;3.60;;
1471;SDS011;963;42.644;23.336;2023-08-17T03:52:34;4.40;;;3.40;;
1471;SDS011;963;42.644;23.336;2023-08-17T03:55:00;6.03;;;3.83;;
1471;SDS011;963;42.644;23.336;2023-08-17T03:57:26;6.23;;;3.90;;
1471;SDS011;963;42.644;23.336;2023-08-17T03:59:51;7.20;;;3.70;;
1471;SDS011;963;42.644;23.336;2023-08-17T04:02:17;5.27;;;3.70;;
1471;SDS011;963;42.644;23.336;2023-08-17T04:04:42;5.17;;;3.13;;
1471;SDS011;963;42.644;23.336;2023-08-17T04:07:07;5.00;;;3.40;;
1471;SDS011;963;42.644;23.336;2023-08-17T04:09:33;8.17;;;3.63;;
1471;SDS011;963;42.644;23.336;2023-08-17T04:11:59;7.33;;;3.20;;
1471;SDS011;963;42.644;23.336;2023-08-17T04:14:24;4.10;;;2.97;;
1471;SDS011;963;42.644;23.336;2023-08-17T04:16:50;8.57;;;3.20;;
1471;SDS011;963;42.644;23.336;2023-08-17T04:19:16;7.03;;;3.10;;
1471;SDS011;963;42.644;23.336;2023-08-17T04:21:41;8.40;;;3.47;;
1471;SDS011;963;42.644;23.336;2023-08-17T04:24:07;4.93;;;3.50;;
1471;SDS011;963;42.644;23.336;2023-08-17T04:26:32;8.97;;;3.77;;
1471;SDS011;963;42.644;23.336;2023-08-17T04:28:57;6.23;;;3.83;;
1471;SDS011;963;42.644;23.336;2023-08-17T04:31:23;7.70;;;4.53;;
1471;SDS011;963;42.644;23.336;2023-08-17T04:33:48;4.93;;;3.13;;
1471;SDS011;963;42.644;23.336;2023-08-17T04:36:14;5.03;;;3.40;;
1471;SDS011;963;42.644;23.336;2023-08-17T04:38:39;4.73;;;3.70;;
1471;SDS011;963;42.644;23.336;2023-08-17T04:41:05;6.83;;;3.40;;
1471;SDS011;963;42.644;23.336;2023-08-17T04:43:30;6.63;;;3.73;;
1471;SDS011;963;42.644;23.336;2023-08-17T04:45:55;7.40;;;3.53;;
1471;SDS011;963;42.644;23.336;2023-08-17T04:48:21;7.20;;;3.47;;
1471;SDS011;963;42.644;23.336;2023-08-17T04:50:46;8.80;;;3.27;;
1471;SDS011;963;42.644;23.336;2023-08-17T04:53:12;6.50;;;3.10;;
1471;SDS011;963;42.644;23.336;2023-08-17T04:55:37;6.60;;;3.50;;
1471;SDS011;963;42.644;23.336;2023-08-17T04:58:03;9.63;;;3.53;;
1471;SDS011;963;42.644;23.336;2023-08-17T05:00:28;6.87;;;3.63;;
1471;SDS011;963;42.644;23.336;2023-08-17T05:02:54;11.07;;;3.37;;
1471;SDS011;963;42.644;23.336;2023-08-17T05:05:20;8.53;;;3.80;;
1471;SDS011;963;42.644;23.336;2023-08-17T05:07:46;5.73;;;3.60;;
1471;SDS011;963;42.644;23.336;2023-08-17T05:10:11;7.80;;;3.67;;
1471;SDS011;963;42.644;23.336;2023-08-17T05:12:37;11.47;;;3.60;;
1471;SDS011;963;42.644;23.336;2023-08-17T05:15:03;5.93;;;3.40;;
1471;SDS011;963;42.644;23.336;2023-08-17T05:17:28;6.90;;;3.13;;
1471;SDS011;963;42.644;23.336;2023-08-17T05:19:54;6.27;;;3.97;;
1471;SDS011;963;42.644;23.336;2023-08-17T05:22:19;6.43;;;3.60;;
1471;SDS011;963;42.644;23.336;2023-08-17T05:24:45;6.93;;;4.20;;
1471;SDS011;963;42.644;23.336;2023-08-17T05:27:10;14.60;;;5.20;;
1471;SDS011;963;42.644;23.336;2023-08-17T05:29:35;6.73;;;3.60;;
1471;SDS011;963;42.644;23.336;2023-08-17T05:32:01;5.40;;;3.57;;
1471;SDS011;963;42.644;23.336;2023-08-17T05:34:26;9.63;;;3.50;;
1471;SDS011;963;42.644;23.336;2023-08-17T05:36:52;5.37;;;3.27;;
1471;SDS011;963;42.644;23.336;2023-08-17T05:39:17;7.10;;;3.30;;
1471;SDS011;963;42.644;23.336;2023-08-17T05:41:43;5.40;;;3.10;;
1471;SDS011;963;42.644;23.336;2023-08-17T05:44:08;4.30;;;3.47;;
1471;SDS011;963;42.644;23.336;2023-08-17T05:46:34;5.60;;;3.33;;
1471;SDS011;963;42.644;23.336;2023-08-17T05:49:00;6.07;;;3.30;;
1471;SDS011;963;42.644;23.336;2023-08-17T05:51:27;9.23;;;3.17;;
1471;SDS011;963;42.644;23.336;2023-08-17T05:53:52;4.60;;;2.73;;
1471;SDS011;963;42.644;23.336;2023-08-17T05:56:17;5.07;;;2.93;;
1471;SDS011;963;42.644;23.336;2023-08-17T05:58:43;8.60;;;3.67;;
1471;SDS011;963;42.644;23.336;2023-08-17T06:01:09;5.63;;;3.40;;
1471;SDS011;963;42.644;23.336;2023-08-17T06:03:35;5.73;;;3.77;;
1471;SDS011;963;42.644;23.336;2023-08-17T06:06:02;10.03;;;4.27;;
1471;SDS011;963;42.644;23.336;2023-08-17T06:08:28;6.27;;;4.03;;
1471;SDS011;963;42.644;23.336;2023-08-17T06:10:54;10.60;;;4.77;;
1471;SDS011;963;42.644;23.336;2023-08-17T06:13:20;7.37;;;4.40;;
1471;SDS011;963;42.644;23.336;2023-08-17T06:15:45;8.63;;;4.50;;
1471;SDS011;963;42.644;23.336;2023-08-17T06:18:11;7.17;;;4.77;;
1471;SDS011;963;42.644;23.336;2023-08-17T06:20:36;9.00;;;4.60;;
1471;SDS011;963;42.644;23.336;2023-08-17T06:23:02;5.77;;;4.40;;
1471;SDS011;963;42.644;23.336;2023-08-17T06:25:27;9.67;;;4.43;;
1471;SDS011;963;42.644;23.336;2023-08-17T06:27:53;10.00;;;4.97;;
1471;SDS011;963;42.644;23.336;2023-08-17T06:30:18;8.90;;;4.20;;
1471;SDS011;963;42.644;23.336;2023-08-17T06:32:43;7.90;;;4.27;;
1471;SDS011;963;42.644;23.336;2023-08-17T06:35:09;7.53;;;4.57;;
1471;SDS011;963;42.644;23.336;2023-08-17T06:37:35;14.03;;;4.80;;
1471;SDS011;963;42.644;23.336;2023-08-17T06:40:01;8.17;;;4.40;;
1471;SDS011;963;42.644;23.336;2023-08-17T06:42:30;13.20;;;6.10;;
1471;SDS011;963;42.644;23.336;2023-08-17T06:44:55;7.03;;;4.27;;
1471;SDS011;963;42.644;23.336;2023-08-17T06:47:21;7.83;;;4.10;;
1471;SDS011;963;42.644;23.336;2023-08-17T06:49:46;8.47;;;4.70;;
1471;SDS011;963;42.644;23.336;2023-08-17T06:52:12;7.67;;;5.00;;
1471;SDS011;963;42.644;23.336;2023-08-17T06:54:37;11.20;;;5.30;;
1471;SDS011;963;42.644;23.336;2023-08-17T06:57:03;8.43;;;5.07;;
1471;SDS011;963;42.644;23.336;2023-08-17T06:59:28;7.10;;;4.40;;
1471;SDS011;963;42.644;23.336;2023-08-17T07:01:53;5.80;;;4.80;;
1471;SDS011;963;42.644;23.336;2023-08-17T07:04:19;9.00;;;5.53;;
1471;SDS011;963;42.644;23.336;2023-08-17T07:06:44;6.47;;;4.57;;
1471;SDS011;963;42.644;23.336;2023-08-17T07:09:10;7.60;;;5.33;;
1471;SDS011;963;42.644;23.336;2023-08-17T07:11:37;7.97;;;4.77;;
1471;SDS011;963;42.644;23.336;2023-08-17T07:14:04;7.57;;;5.10;;
1471;SDS011;963;42.644;23.336;2023-08-17T07:16:31;8.43;;;4.20;;
1471;SDS011;963;42.644;23.336;2023-08-17T07:18:57;6.50;;;4.10;;
1471;SDS011;963;42.644;23.336;2023-08-17T07:21:22;6.50;;;4.43;;
1471;SDS011;963;42.644;23.336;2023-08-17T07:23:47;8.10;;;4.67;;
1471;SDS011;963;42.644;23.336;2023-08-17T07:26:14;7.83;;;4.90;;
1471;SDS011;963;42.644;23.336;2023-08-17T07:28:39;6.40;;;5.30;;
1471;SDS011;963;42.644;23.336;2023-08-17T07:31:05;6.70;;;4.70;;
1471;SDS011;963;42.644;23.336;2023-08-17T07:33:31;7.17;;;4.50;;
1471;SDS011;963;42.644;23.336;2023-08-17T07:35:56;7.50;;;3.97;;
1471;SDS011;963;42.644;23.336;2023-08-17T07:38:23;7.97;;;3.90;;
1471;SDS011;963;42.644;23.336;2023-08-17T07:40:49;4.87;;;3.43;;
1471;SDS011;963;42.644;23.336;2023-08-17T07:43:14;5.67;;;3.43;;
1471;SDS011;963;42.644;23.336;2023-08-17T07:45:40;5.50;;;3.53;;
1471;SDS011;963;42.644;23.336;2023-08-17T07:48:05;6.10;;;3.50;;
1471;SDS011;963;42.644;23.336;2023-08-17T07:50:31;6.00;;;3.60;;
1471;SDS011;963;42.644;23.336;2023-08-17T07:52:56;6.73;;;4.17;;
1471;SDS011;963;42.644;23.336;2023-08-17T07:55:21;7.23;;;4.57;;
1471;SDS011;963;42.644;23.336;2023-08-17T07:57:47;8.10;;;4.03;;
1471;SDS011;963;42.644;23.336;2023-08-17T08:00:12;6.97;;;4.90;;
1471;SDS011;963;42.644;23.336;2023-08-17T08:02:38;5.87;;;4.20;;
1471;SDS011;963;42.644;23.336;2023-08-17T08:05:03;7.40;;;4.50;;
1471;SDS011;963;42.644;23.336;2023-08-17T08:07:29;8.43;;;4.27;;
1471;SDS011;963;42.644;23.336;2023-08-17T08:09:54;5.57;;;4.70;;
1471;SDS011;963;42.644;23.336;2023-08-17T08:12:20;6.10;;;4.30;;
1471;SDS011;963;42.644;23.336;2023-08-17T08:14:45;10.23;;;4.40;;
1471;SDS011;963;42.644;23.336;2023-08-17T08:17:11;8.17;;;4.80;;
1471;SDS011;963;42.644;23.336;2023-08-17T08:19:36;5.40;;;4.27;;
1471;SDS011;963;42.644;23.336;2023-08-17T08:22:01;6.07;;;4.63;;
1471;SDS011;963;42.644;23.336;2023-08-17T08:24:27;4.83;;;4.13;;
1471;SDS011;963;42.644;23.336;2023-08-17T08:26:58;7.87;;;4.07;;
1471;SDS011;963;42.644;23.336;2023-08-17T08:29:24;5.70;;;4.67;;
1471;SDS011;963;42.644;23.336;2023-08-17T08:31:49;5.10;;;4.10;;
1471;SDS011;963;42.644;23.336;2023-08-17T08:34:14;5.20;;;4.17;;
1471;SDS011;963;42.644;23.336;2023-08-17T08:36:40;5.70;;;3.87;;
1471;SDS011;963;42.644;23.336;2023-08-17T08:39:05;7.83;;;4.93;;
1471;SDS011;963;42.644;23.336;2023-08-17T08:41:31;10.23;;;4.80;;
1471;SDS011;963;42.644;23.336;2023-08-17T08:43:57;7.70;;;4.17;;
1471;SDS011;963;42.644;23.336;2023-08-17T08:46:23;5.50;;;4.27;;
1471;SDS011;963;42.644;23.336;2023-08-17T08:48:53;5.50;;;4.17;;
1471;SDS011;963;42.644;23.336;2023-08-17T08:51:22;5.87;;;4.47;;
1471;SDS011;963;42.644;23.336;2023-08-17T08:53:53;9.30;;;4.70;;
1471;SDS011;963;42.644;23.336;2023-08-17T08:56:26;13.60;;;4.90;;
1471;SDS011;963;42.644;23.336;2023-08-17T08:58:54;6.80;;;4.53;;
1471;SDS011;963;42.644;23.336;2023-08-17T09:01:20;5.80;;;4.17;;
1471;SDS011;963;42.644;23.336;2023-08-17T09:03:46;7.23;;;4.47;;
1471;SDS011;963;42.644;23.336;2023-08-17T09:06:13;7.97;;;4.00;;
1471;SDS011;963;42.644;23.336;2023-08-17T09:08:40;8.20;;;4.23;;
1471;SDS011;963;42.644;23.336;2023-08-17T09:11:05;5.33;;;3.93;;
1471;SDS011;963;42.644;23.336;2023-08-17T09:13:30;5.83;;;4.13;;
1471;SDS011;963;42.644;23.336;2023-08-17T09:15:57;7.50;;;3.90;;
1471;SDS011;963;42.644;23.336;2023-08-17T09:18:24;8.37;;;4.53;;
1471;SDS011;963;42.644;23.336;2023-08-17T09:20:51;5.77;;;3.87;;
1471;SDS011;963;42.644;23.336;2023-08-17T09:23:17;5.20;;;4.20;;
1471;SDS011;963;42.644;23.336;2023-08-17T09:25:47;8.10;;;4.03;;
1471;SDS011;963;42.644;23.336;2023-08-17T09:28:15;6.30;;;4.50;;
1471;SDS011;963;42.644;23.336;2023-08-17T09:30:56;4.53;;;3.70;;
1471;SDS011;963;42.644;23.336;2023-08-17T09:33:23;7.50;;;4.00;;
1471;SDS011;963;42.644;23.336;2023-08-17T09:35:49;4.90;;;3.47;;
1471;SDS011;963;42.644;23.336;2023-08-17T09:38:16;10.63;;;3.73;;
1471;SDS011;963;42.644;23.336;2023-08-17T09:40:42;6.57;;;3.80;;
1471;SDS011;963;42.644;23.336;2023-08-17T09:43:08;5.80;;;3.20;;
1471;SDS011;963;42.644;23.336;2023-08-17T09:45:35;9.73;;;4.40;;
1471;SDS011;963;42.644;23.336;2023-08-17T09:48:02;4.50;;;3.67;;
1471;SDS011;963;42.644;23.336;2023-08-17T09:50:28;6.93;;;4.00;;
1471;SDS011;963;42.644;23.336;2023-08-17T09:52:54;6.10;;;3.07;;
1471;SDS011;963;42.644;23.336;2023-08-17T09:55:20;10.17;;;4.50;;
1471;SDS011;963;42.644;23.336;2023-08-17T09:57:48;8.40;;;3.10;;
1471;SDS011;963;42.644;23.336;2023-08-17T10:00:15;6.13;;;2.77;;
1471;SDS011;963;42.644;23.336;2023-08-17T10:02:41;3.83;;;2.80;;
1471;SDS011;963;42.644;23.336;2023-08-17T10:05:09;4.60;;;2.90;;
1471;SDS011;963;42.644;23.336;2023-08-17T10:07:38;5.13;;;3.33;;
1471;SDS011;963;42.644;23.336;2023-08-17T10:10:06;3.50;;;3.20;;
1471;SDS011;963;42.644;23.336;2023-08-17T10:12:42;6.70;;;2.90;;
1471;SDS011;963;42.644;23.336;2023-08-17T10:15:11;5.33;;;3.00;;
1471;SDS011;963;42.644;23.336;2023-08-17T10:17:44;3.93;;;2.63;;
1471;SDS011;963;42.644;23.336;2023-08-17T10:20:17;6.63;;;5.27;;
1471;SDS011;963;42.644;23.336;2023-08-17T10:22:48;5.47;;;3.47;;
1471;SDS011;963;42.644;23.336;2023-08-17T10:25:19;4.33;;;2.60;;
1471;SDS011;963;42.644;23.336;2023-08-17T10:27:46;4.50;;;3.60;;
1471;SDS011;963;42.644;23.336;2023-08-17T10:30:14;5.40;;;2.80;;
1471;SDS011;963;42.644;23.336;2023-08-17T10:32:39;4.80;;;3.00;;
1471;SDS011;963;42.644;23.336;2023-08-17T10:35:10;5.37;;;3.07;;
1471;SDS011;963;42.644;23.336;2023-08-17T10:37:36;3.73;;;2.83;;
1471;SDS011;963;42.644;23.336;2023-08-17T10:40:03;8.43;;;2.70;;
1471;SDS011;963;42.644;23.336;2023-08-17T10:42:35;5.90;;;2.43;;
1471;SDS011;963;42.644;23.336;2023-08-17T10:45:02;10.23;;;2.97;;
1471;SDS011;963;42.644;23.336;2023-08-17T10:47:46;7.40;;;3.00;;
1471;SDS011;963;42.644;23.336;2023-08-17T10:50:22;4.53;;;3.03;;
1471;SDS011;963;42.644;23.336;2023-08-17T10:52:49;7.97;;;2.40;;
1471;SDS011;963;42.644;23.336;2023-08-17T10:55:16;4.90;;;3.03;;
1471;SDS011;963;42.644;23.336;2023-08-17T10:57:43;4.83;;;2.73;;
1471;SDS011;963;42.644;23.336;2023-08-17T11:00:13;4.57;;;3.00;;
1471;SDS011;963;42.644;23.336;2023-08-17T11:08:07;4.80;;;3.30;;
1471;SDS011;963;42.644;23.336;2023-08-17T11:10:38;6.30;;;2.63;;
1471;SDS011;963;42.644;23.336;2023-08-17T11:13:04;6.23;;;3.30;;
1471;SDS011;963;42.644;23.336;2023-08-17T11:18:07;5.60;;;2.87;;
1471;SDS011;963;42.644;23.336;2023-08-17T11:20:33;6.90;;;2.97;;
1471;SDS011;963;42.644;23.336;2023-08-17T11:22:59;5.27;;;2.80;;
1471;SDS011;963;42.644;23.336;2023-08-17T11:25:25;4.33;;;2.47;;
1471;SDS011;963;42.644;23.336;2023-08-17T11:27:52;5.07;;;2.50;;
1471;SDS011;963;42.644;23.336;2023-08-17T11:30:19;3.20;;;2.40;;
1471;SDS011;963;42.644;23.336;2023-08-17T11:32:47;5.07;;;3.30;;
1471;SDS011;963;42.644;23.336;2023-08-17T11:35:14;9.80;;;3.57;;
1471;SDS011;963;42.644;23.336;2023-08-17T11:37:39;4.90;;;3.20;;
1471;SDS011;963;42.644;23.336;2023-08-17T11:40:05;3.77;;;2.70;;
1471;SDS011;963;42.644;23.336;2023-08-17T11:42:30;3.80;;;2.50;;
1471;SDS011;963;42.644;23.336;2023-08-17T11:44:56;6.73;;;3.00;;
1471;SDS011;963;42.644;23.336;2023-08-17T11:47:21;4.70;;;3.20;;
1471;SDS011;963;42.644;23.336;2023-08-17T11:49:47;3.40;;;3.07;;
1471;SDS011;963;42.644;23.336;2023-08-17T11:52:14;7.10;;;3.80;;
1471;SDS011;963;42.644;23.336;2023-08-17T11:54:41;5.57;;;3.90;;
1471;SDS011;963;42.644;23.336;2023-08-17T11:57:06;6.10;;;4.10;;
1471;SDS011;963;42.644;23.336;2023-08-17T11:59:32;28.57;;;25.57;;
1471;SDS011;963;42.644;23.336;2023-08-17T12:01:58;25.53;;;18.40;;
1471;SDS011;963;42.644;23.336;2023-08-17T12:04:25;7.73;;;4.00;;
1471;SDS011;963;42.644;23.336;2023-08-17T12:06:50;7.70;;;3.70;;
1471;SDS011;963;42.644;23.336;2023-08-17T12:09:17;7.03;;;3.67;;
1471;SDS011;963;42.644;23.336;2023-08-17T12:11:44;6.60;;;3.97;;
1471;SDS011;963;42.644;23.336;2023-08-17T12:14:11;6.07;;;3.90;;
1471;SDS011;963;42.644;23.336;2023-08-17T12:16:46;3.57;;;3.27;;
1471;SDS011;963;42.644;23.336;2023-08-17T12:19:13;4.20;;;3.20;;
1471;SDS011;963;42.644;23.336;2023-08-17T12:21:40;7.67;;;3.87;;
1471;SDS011;963;42.644;23.336;2023-08-17T12:24:08;3.70;;;3.13;;
1471;SDS011;963;42.644;23.336;2023-08-17T12:26:34;4.53;;;3.37;;
1471;SDS011;963;42.644;23.336;2023-08-17T12:29:00;6.97;;;3.27;;
1471;SDS011;963;42.644;23.336;2023-08-17T12:31:29;9.20;;;3.47;;
1471;SDS011;963;42.644;23.336;2023-08-17T12:33:54;4.87;;;3.90;;
1471;SDS011;963;42.644;23.336;2023-08-17T12:36:20;6.63;;;3.40;;
1471;SDS011;963;42.644;23.336;2023-08-17T12:38:46;4.30;;;3.67;;
1471;SDS011;963;42.644;23.336;2023-08-17T12:41:13;9.93;;;3.70;;
1471;SDS011;963;42.644;23.336;2023-08-17T12:43:38;5.23;;;3.13;;
1471;SDS011;963;42.644;23.336;2023-08-17T12:46:04;4.90;;;3.40;;
1471;SDS011;963;42.644;23.336;2023-08-17T12:48:29;6.63;;;4.10;;
1471;SDS011;963;42.644;23.336;2023-08-17T12:50:55;7.00;;;3.70;;
1471;SDS011;963;42.644;23.336;2023-08-17T12:53:21;4.67;;;3.80;;
1471;SDS011;963;42.644;23.336;2023-08-17T12:55:47;7.53;;;4.10;;
1471;SDS011;963;42.644;23.336;2023-08-17T12:58:12;6.73;;;4.00;;
1471;SDS011;963;42.644;23.336;2023-08-17T13:00:37;7.87;;;4.00;;
1471;SDS011;963;42.644;23.336;2023-08-17T13:03:03;4.90;;;4.27;;
1471;SDS011;963;42.644;23.336;2023-08-17T13:05:29;5.13;;;3.67;;
1471;SDS011;963;42.644;23.336;2023-08-17T13:07:54;6.27;;;4.10;;
1471;SDS011;963;42.644;23.336;2023-08-17T13:10:19;10.43;;;4.60;;
1471;SDS011;963;42.644;23.336;2023-08-17T13:12:45;10.33;;;4.47;;
1471;SDS011;963;42.644;23.336;2023-08-17T13:15:12;4.73;;;4.13;;
1471;SDS011;963;42.644;23.336;2023-08-17T13:17:38;10.40;;;4.50;;
1471;SDS011;963;42.644;23.336;2023-08-17T13:20:03;6.03;;;4.10;;
1471;SDS011;963;42.644;23.336;2023-08-17T13:22:31;12.17;;;3.97;;
1471;SDS011;963;42.644;23.336;2023-08-17T13:24:56;7.50;;;4.30;;
1471;SDS011;963;42.644;23.336;2023-08-17T13:27:22;9.23;;;4.80;;
1471;SDS011;963;42.644;23.336;2023-08-17T13:29:47;9.20;;;4.27;;
1471;SDS011;963;42.644;23.336;2023-08-17T13:32:12;5.93;;;4.10;;
1471;SDS011;963;42.644;23.336;2023-08-17T13:34:38;9.23;;;4.70;;
1471;SDS011;963;42.644;23.336;2023-08-17T13:37:03;9.30;;;5.30;;
1471;SDS011;963;42.644;23.336;2023-08-17T13:39:29;5.40;;;4.90;;
1471;SDS011;963;42.644;23.336;2023-08-17T13:41:54;5.07;;;4.40;;
1471;SDS011;963;42.644;23.336;2023-08-17T13:44:19;9.40;;;4.70;;
1471;SDS011;963;42.644;23.336;2023-08-17T13:46:45;8.97;;;5.37;;
1471;SDS011;963;42.644;23.336;2023-08-17T13:49:10;6.60;;;4.93;;
1471;SDS011;963;42.644;23.336;2023-08-17T13:51:35;5.60;;;4.00;;
1471;SDS011;963;42.644;23.336;2023-08-17T13:54:01;6.93;;;4.20;;
1471;SDS011;963;42.644;23.336;2023-08-17T13:56:26;8.20;;;5.30;;
1471;SDS011;963;42.644;23.336;2023-08-17T13:58:52;5.90;;;4.90;;
1471;SDS011;963;42.644;23.336;2023-08-17T14:01:17;9.70;;;4.80;;
1471;SDS011;963;42.644;23.336;2023-08-17T14:03:43;4.27;;;3.87;;
1471;SDS011;963;42.644;23.336;2023-08-17T14:06:09;5.37;;;4.17;;
1471;SDS011;963;42.644;23.336;2023-08-17T14:08:34;7.30;;;5.37;;
1471;SDS011;963;42.644;23.336;2023-08-17T14:11:00;8.53;;;4.80;;
1471;SDS011;963;42.644;23.336;2023-08-17T14:13:26;8.60;;;4.43;;
1471;SDS011;963;42.644;23.336;2023-08-17T14:15:51;9.90;;;4.40;;
1471;SDS011;963;42.644;23.336;2023-08-17T14:18:16;10.77;;;4.40;;
1471;SDS011;963;42.644;23.336;2023-08-17T14:20:42;5.33;;;4.03;;
1471;SDS011;963;42.644;23.336;2023-08-17T14:23:08;5.20;;;4.70;;
1471;SDS011;963;42.644;23.336;2023-08-17T14:25:33;7.33;;;4.70;;
1471;SDS011;963;42.644;23.336;2023-08-17T14:27:59;20.23;;;6.53;;
1471;SDS011;963;42.644;23.336;2023-08-17T14:30:24;8.47;;;5.13;;
1471;SDS011;963;42.644;23.336;2023-08-17T14:32:51;7.57;;;4.80;;
1471;SDS011;963;42.644;23.336;2023-08-17T14:35:16;7.80;;;4.70;;
1471;SDS011;963;42.644;23.336;2023-08-17T14:37:42;5.30;;;3.93;;
1471;SDS011;963;42.644;23.336;2023-08-17T14:40:07;6.10;;;4.40;;
1471;SDS011;963;42.644;23.336;2023-08-17T14:42:33;5.93;;;4.10;;
1471;SDS011;963;42.644;23.336;2023-08-17T14:44:58;6.63;;;4.37;;
1471;SDS011;963;42.644;23.336;2023-08-17T14:47:24;5.67;;;4.63;;
1471;SDS011;963;42.644;23.336;2023-08-17T14:49:49;5.37;;;3.70;;
1471;SDS011;963;42.644;23.336;2023-08-17T14:52:14;6.27;;;3.97;;
1471;SDS011;963;42.644;23.336;2023-08-17T14:54:40;4.33;;;3.93;;
1471;SDS011;963;42.644;23.336;2023-08-17T14:57:05;4.40;;;3.90;;
1471;SDS011;963;42.644;23.336;2023-08-17T14:59:31;4.90;;;3.97;;
1471;SDS011;963;42.644;23.336;2023-08-17T15:01:56;4.47;;;3.67;;
1471;SDS011;963;42.644;23.336;2023-08-17T15:04:22;6.73;;;4.37;;
1471;SDS011;963;42.644;23.336;2023-08-17T15:06:48;4.00;;;3.60;;
1471;SDS011;963;42.644;23.336;2023-08-17T15:09:13;18.33;;;16.43;;
1471;SDS011;963;42.644;23.336;2023-08-17T15:11:39;23.53;;;21.23;;
1471;SDS011;963;42.644;23.336;2023-08-17T15:14:05;20.93;;;17.73;;
1471;SDS011;963;42.644;23.336;2023-08-17T15:16:30;6.83;;;5.03;;
1471;SDS011;963;42.644;23.336;2023-08-17T15:18:55;8.47;;;3.93;;
1471;SDS011;963;42.644;23.336;2023-08-17T15:21:21;5.90;;;3.83;;